createdAt,value
2023-01-31T00:01:31.434Z,99651.52
2023-01-31T00:04:02.471Z,99654.37
2023-01-31T00:06:32.035Z,99659.73
2023-01-31T00:09:02.125Z,99662.14
2023-01-31T00:11:31.612Z,99660.34
2023-01-31T00:14:02.418Z,99666.05
2023-01-31T00:16:30.937Z,99668.06
2023-01-31T00:19:02.070Z,99670.80
2023-01-31T00:21:32.223Z,99679.20
2023-01-31T00:24:01.387Z,99681.49
2023-01-31T00:26:31.968Z,99680.59
2023-01-31T00:29:03.089Z,99683.60
2023-01-31T00:31:34.263Z,99684.48
2023-01-31T00:34:03.233Z,99699.90
2023-01-31T00:36:35.125Z,99696.52
2023-01-31T00:39:06.057Z,99704.20
2023-01-31T00:41:36.620Z,99710.07
2023-01-31T00:44:07.136Z,99720.80
2023-01-31T00:46:36.718Z,99725.95
2023-01-31T00:49:05.728Z,99727.56
2023-01-31T00:51:34.738Z,99726.48
2023-01-31T00:54:03.826Z,99731.75
2023-01-31T00:56:32.123Z,99733.18
2023-01-31T00:59:01.292Z,99739.98
2023-01-31T01:01:29.871Z,99743.71
2023-01-31T01:03:58.447Z,99737.48
2023-01-31T01:06:27.798Z,99744.09
2023-01-31T01:08:59.043Z,99751.11
2023-01-31T01:11:29.497Z,99751.63
2023-01-31T01:13:59.063Z,99751.98
2023-01-31T01:16:34.288Z,99754.63
2023-01-31T01:19:06.177Z,99757.38
2023-01-31T01:21:38.332Z,99763.61
2023-01-31T01:24:12.732Z,99769.38
2023-01-31T01:26:43.235Z,99772.95
2023-01-31T01:29:12.074Z,99775.50
2023-01-31T01:31:40.740Z,99780.84
2023-01-31T01:34:13.519Z,99785.67
2023-01-31T01:36:41.542Z,99787.67
2023-01-31T01:39:11.887Z,99785.92
2023-01-31T01:41:40.745Z,99800.80
2023-01-31T01:44:43.962Z,99802.42
2023-01-31T01:47:21.467Z,99808.84
2023-01-31T01:49:54.478Z,99815.65
2023-01-31T01:52:24.946Z,99816.52
2023-01-31T01:54:58.247Z,99815.64
2023-01-31T01:57:30.576Z,99815.46
2023-01-31T02:00:08.293Z,99823.33
2023-01-31T02:02:43.811Z,99815.45
2023-01-31T02:05:15.907Z,99822.23
2023-01-31T02:07:44.437Z,99828.48
2023-01-31T02:10:17.122Z,99835.47
2023-01-31T02:12:44.779Z,99837.42
2023-01-31T02:15:13.736Z,99842.96
2023-01-31T02:17:42.313Z,99847.09
2023-01-31T02:20:26.560Z,99854.79
2023-01-31T02:23:13.075Z,99857.46
2023-01-31T02:26:06.327Z,99868.00
2023-01-31T02:28:59.606Z,99867.14
2023-01-31T02:31:54.321Z,99868.00
2023-01-31T02:34:34.389Z,99882.14
2023-01-31T02:37:13.034Z,99890.55
2023-01-31T02:39:52.918Z,99888.04
2023-01-31T02:42:29.419Z,99895.02
2023-01-31T02:45:09.008Z,99900.94
2023-01-31T02:47:50.804Z,99900.23
2023-01-31T02:50:26.128Z,99905.40
2023-01-31T02:53:02.980Z,99912.19
2023-01-31T02:55:56.929Z,99916.11
2023-01-31T02:58:28.461Z,99922.73
2023-01-31T03:01:00.269Z,99925.77
2023-01-31T03:03:31.769Z,99928.79
2023-01-31T03:06:36.822Z,99932.73
2023-01-31T03:09:12.988Z,99940.77
2023-01-31T03:11:52.677Z,99942.73
2023-01-31T03:14:30.461Z,99954.17
2023-01-31T03:17:24.473Z,99953.63
2023-01-31T03:20:03.632Z,99947.92
2023-01-31T03:22:36.917Z,99960.60
2023-01-31T03:25:10.408Z,99956.86
2023-01-31T03:27:43.651Z,99955.41
2023-01-31T03:30:18.568Z,99951.48
2023-01-31T03:32:53.773Z,99962.38
2023-01-31T03:35:27.340Z,99962.38
2023-01-31T03:38:02.973Z,99975.25
2023-01-31T03:40:37.948Z,99973.64
2023-01-31T03:43:13.708Z,99979.35
2023-01-31T03:45:48.492Z,99988.28
2023-01-31T03:48:21.968Z,99993.30
2023-01-31T03:50:57.214Z,99997.73
2023-01-31T03:53:32.548Z,100000.09
2023-01-31T03:56:05.607Z,100005.06
2023-01-31T03:58:36.422Z,100006.48
2023-01-31T04:01:09.352Z,100003.47
2023-01-31T04:03:41.218Z,100009.54
2023-01-31T04:06:12.162Z,100009.71
2023-01-31T04:08:41.755Z,100023.10
2023-01-31T04:11:14.034Z,100031.52
2023-01-31T04:13:42.903Z,100025.09
2023-01-31T04:16:11.378Z,100022.58
2023-01-31T04:18:39.861Z,100028.83
2023-01-31T04:21:09.199Z,100029.72
2023-01-31T04:23:37.702Z,100029.36
2023-01-31T04:26:05.976Z,100032.41
2023-01-31T04:28:34.416Z,100039.55
2023-01-31T04:31:02.921Z,100040.09
2023-01-31T04:33:31.995Z,100045.46
2023-01-31T04:36:00.383Z,100052.41
2023-01-31T04:38:28.655Z,100055.08
2023-01-31T04:40:56.986Z,100055.45
2023-01-31T04:43:25.276Z,100056.16
2023-01-31T04:45:53.657Z,100055.64
2023-01-31T04:48:21.925Z,100064.23
2023-01-31T04:50:50.608Z,100067.44
2023-01-31T04:53:21.299Z,100066.16
2023-01-31T04:55:49.743Z,100072.79
2023-01-31T04:58:18.311Z,100071.37
2023-01-31T05:00:46.824Z,100078.52
2023-01-31T05:03:15.344Z,100080.48
2023-01-31T05:05:43.613Z,100087.46
2023-01-31T05:08:12.417Z,100088.34
2023-01-31T05:10:42.259Z,100093.00
2023-01-31T05:13:10.949Z,100100.85
2023-01-31T05:15:40.460Z,100099.96
2023-01-31T05:18:08.838Z,100108.91
2023-01-31T05:20:40.076Z,100108.19
2023-01-31T05:23:09.060Z,100107.48
2023-01-31T05:25:38.136Z,100113.00
2023-01-31T05:28:06.831Z,100119.08
2023-01-31T05:30:37.011Z,100120.70
2023-01-31T05:33:05.410Z,100116.59
2023-01-31T05:35:33.738Z,100116.77
2023-01-31T05:38:02.304Z,100125.52
2023-01-31T05:40:31.192Z,100130.52
2023-01-31T05:43:00.284Z,100136.77
2023-01-31T05:45:29.541Z,100131.95
2023-01-31T05:47:58.514Z,100133.03
2023-01-31T05:50:27.325Z,100141.05
2023-01-31T05:52:58.868Z,100142.84
2023-01-31T05:55:28.483Z,100144.98
2023-01-31T05:57:57.148Z,100148.03
2023-01-31T06:00:26.456Z,100152.66
2023-01-31T06:02:58.700Z,100150.70
2023-01-31T06:05:28.768Z,100151.95
2023-01-31T06:07:57.128Z,100147.67
2023-01-31T06:10:25.635Z,100162.86
2023-01-31T06:12:54.160Z,100163.74
2023-01-31T06:15:22.836Z,100164.98
2023-01-31T06:17:51.161Z,100169.46
2023-01-31T06:20:19.985Z,100173.05
2023-01-31T06:22:48.265Z,100179.99
2023-01-31T06:25:16.888Z,100188.40
2023-01-31T06:27:45.638Z,100185.90
2023-01-31T06:30:14.958Z,100188.59
2023-01-31T06:32:43.854Z,100180.00
2023-01-31T06:35:12.320Z,100192.14
2023-01-31T06:37:41.384Z,100195.52
2023-01-31T06:40:12.410Z,100195.54
2023-01-31T06:42:40.809Z,100199.11
2023-01-31T06:45:11.253Z,100206.64
2023-01-31T06:47:39.863Z,100211.08
2023-01-31T06:50:12.018Z,100204.47
2023-01-31T06:52:40.772Z,100209.30
2023-01-31T06:55:10.890Z,100213.23
2023-01-31T06:57:46.365Z,100220.73
2023-01-31T07:00:18.157Z,100223.05
2023-01-31T07:02:47.213Z,100224.66
2023-01-31T07:05:16.382Z,100225.37
2023-01-31T07:07:45.849Z,100226.98
2023-01-31T07:10:15.205Z,100229.83
2023-01-31T07:12:43.661Z,100236.61
2023-01-31T07:15:12.825Z,100235.70
2023-01-31T07:17:41.197Z,100233.77
2023-01-31T07:20:12.390Z,100237.86
2023-01-31T07:22:41.417Z,100240.73
2023-01-31T07:25:10.287Z,100249.65
2023-01-31T07:27:38.704Z,100250.89
2023-01-31T07:30:10.028Z,100257.33
2023-01-31T07:32:39.057Z,100261.80
2023-01-31T07:35:09.672Z,100254.30
2023-01-31T07:37:39.885Z,100257.88
2023-01-31T07:40:12.967Z,100262.89
2023-01-31T07:42:42.310Z,100263.23
2023-01-31T07:45:22.880Z,100269.30
2023-01-31T07:47:52.648Z,100268.77
2023-01-31T07:50:21.662Z,100270.02
2023-01-31T07:52:50.586Z,100267.69
2023-01-31T07:55:19.787Z,100266.45
2023-01-31T07:57:49.007Z,100266.80
2023-01-31T08:00:38.754Z,100270.38
2023-01-31T08:03:32.163Z,100268.24
2023-01-31T08:06:02.248Z,100270.21
2023-01-31T08:08:31.012Z,100266.64
2023-01-31T08:10:59.979Z,100273.42
2023-01-31T08:13:30.477Z,100277.52
2023-01-31T08:16:00.125Z,100272.17
2023-01-31T08:18:29.264Z,100275.57
2023-01-31T08:20:59.760Z,100274.85
2023-01-31T08:23:32.096Z,100281.30
2023-01-31T08:26:03.138Z,100282.38
2023-01-31T08:28:32.768Z,100289.15
2023-01-31T08:31:08.963Z,100293.80
2023-01-31T08:33:38.549Z,100299.00
2023-01-31T08:36:12.569Z,100305.25
2023-01-31T08:38:41.477Z,100297.73
2023-01-31T08:41:10.058Z,100293.27
2023-01-31T08:43:52.860Z,100300.61
2023-01-31T08:46:24.144Z,100297.57
2023-01-31T08:48:52.754Z,100299.01
2023-01-31T08:51:22.395Z,100296.85
2023-01-31T08:53:52.322Z,100291.32
2023-01-31T08:56:25.139Z,100290.42
2023-01-31T08:58:55.156Z,100293.28
2023-01-31T09:01:24.820Z,100292.76
2023-01-31T09:03:56.007Z,100295.09
2023-01-31T09:06:27.877Z,100292.75
2023-01-31T09:08:57.554Z,100294.36
2023-01-31T09:11:30.054Z,100296.86
2023-01-31T09:13:59.814Z,100298.98
2023-01-31T09:16:29.100Z,100295.08
2023-01-31T09:18:58.373Z,100302.05
2023-01-31T09:21:30.111Z,100306.70
2023-01-31T09:24:03.137Z,100307.77
2023-01-31T09:26:33.136Z,100303.83
2023-01-31T09:29:02.189Z,100309.91
2023-01-31T09:31:31.355Z,100313.30
2023-01-31T09:34:00.644Z,100318.13
2023-01-31T09:36:30.153Z,100317.77
2023-01-31T09:38:59.053Z,100317.24
2023-01-31T09:41:33.814Z,100316.88
2023-01-31T09:44:06.409Z,100318.67
2023-01-31T09:46:39.020Z,100325.47
2023-01-31T09:49:09.715Z,100323.31
2023-01-31T09:51:40.113Z,100326.35
2023-01-31T09:54:19.611Z,100324.40
2023-01-31T09:57:00.398Z,100321.89
2023-01-31T09:59:37.000Z,100322.06
2023-01-31T10:02:29.983Z,100314.55
2023-01-31T10:05:12.581Z,100317.60
2023-01-31T10:07:49.666Z,100317.23
2023-01-31T10:10:28.936Z,100309.55
2023-01-31T10:13:02.609Z,100302.03
2023-01-31T10:15:36.623Z,100300.75
2023-01-31T10:18:12.256Z,100305.91
2023-01-31T10:20:47.714Z,100293.73
2023-01-31T10:23:23.219Z,100290.69
2023-01-31T10:25:57.614Z,100294.77
2023-01-31T10:28:32.578Z,100297.98
2023-01-31T10:31:07.102Z,100303.68
2023-01-31T10:33:43.769Z,100303.31
2023-01-31T10:36:18.638Z,100318.38
2023-01-31T10:38:59.953Z,100313.24
2023-01-31T10:41:40.923Z,100307.32
2023-01-31T10:44:21.991Z,100303.05
2023-01-31T10:46:52.327Z,100294.63
2023-01-31T10:49:24.474Z,100296.59
2023-01-31T10:52:07.989Z,100289.96
2023-01-31T10:54:48.597Z,100281.73
2023-01-31T10:57:17.984Z,100281.00
2023-01-31T10:59:49.103Z,100281.52
2023-01-31T11:02:21.881Z,100273.29
2023-01-31T11:04:53.071Z,100271.84
2023-01-31T11:07:23.347Z,100270.42
2023-01-31T11:09:53.829Z,100260.23
2023-01-31T11:12:39.222Z,100255.40
2023-01-31T11:15:16.724Z,100251.27
2023-01-31T11:17:47.318Z,100247.52
2023-01-31T11:20:30.542Z,100242.69
2023-01-31T11:23:01.058Z,100235.17
2023-01-31T11:25:33.547Z,100241.58
2023-01-31T11:28:16.193Z,100241.59
2023-01-31T11:30:49.848Z,100238.02
2023-01-31T11:33:44.593Z,100230.14
2023-01-31T11:36:15.670Z,100230.48
2023-01-31T11:38:44.301Z,100234.58
2023-01-31T11:41:31.962Z,100228.09
2023-01-31T11:44:15.512Z,100221.22
2023-01-31T11:46:48.549Z,100214.97
2023-01-31T11:49:23.876Z,100219.44
2023-01-31T11:51:52.948Z,100214.74
2023-01-31T11:54:25.596Z,100213.86
2023-01-31T11:56:55.858Z,100202.39
2023-01-31T11:59:29.423Z,100197.76
2023-01-31T12:02:00.981Z,100204.95
2023-01-31T12:04:39.781Z,100203.26
2023-01-31T12:07:24.517Z,100199.68
2023-01-31T12:09:53.283Z,100193.81
2023-01-31T12:12:30.658Z,100192.19
2023-01-31T12:15:05.432Z,100185.23
2023-01-31T12:17:42.984Z,100175.73
2023-01-31T12:20:28.119Z,100171.25
2023-01-31T12:23:10.424Z,100164.47
2023-01-31T12:25:52.488Z,100161.63
2023-01-31T12:28:35.614Z,100153.98
2023-01-31T12:31:18.990Z,100155.43
2023-01-31T12:34:07.162Z,100151.83
2023-01-31T12:36:47.021Z,100143.46
2023-01-31T12:39:30.279Z,100140.05
2023-01-31T12:42:12.190Z,100132.91
2023-01-31T12:44:49.523Z,100127.22
2023-01-31T12:47:42.113Z,100122.04
2023-01-31T12:50:31.127Z,100112.95
2023-01-31T12:53:20.108Z,100110.99
2023-01-31T12:55:58.053Z,100108.42
2023-01-31T12:58:44.457Z,100097.82
2023-01-31T13:01:17.726Z,100100.59
2023-01-31T13:04:02.861Z,100094.84
2023-01-31T13:06:36.183Z,100089.17
2023-01-31T13:09:10.238Z,100086.52
2023-01-31T13:11:43.811Z,100080.98
2023-01-31T13:14:19.901Z,100077.36
2023-01-31T13:16:53.061Z,100070.52
2023-01-31T13:19:27.197Z,100073.88
2023-01-31T13:21:58.669Z,100072.30
2023-01-31T13:24:30.983Z,100067.45
2023-01-31T13:27:03.725Z,100066.69
2023-01-31T13:29:38.272Z,100059.89
2023-01-31T13:32:12.641Z,100060.25
2023-01-31T13:34:51.507Z,100058.96
2023-01-31T13:37:21.661Z,100053.59
2023-01-31T13:39:54.908Z,100050.52
2023-01-31T13:42:23.755Z,100045.16
2023-01-31T13:44:54.202Z,100045.67
2023-01-31T13:47:27.003Z,100035.65
2023-01-31T13:49:56.844Z,100034.25
2023-01-31T13:52:30.960Z,100036.80
2023-01-31T13:55:03.597Z,100030.02
2023-01-31T13:57:34.648Z,100024.83
2023-01-31T14:00:18.342Z,100026.50
2023-01-31T14:03:01.087Z,100013.52
2023-01-31T14:05:58.001Z,100006.41
2023-01-31T14:08:36.491Z,100003.96
2023-01-31T14:11:33.131Z,100003.44
2023-01-31T14:14:39.384Z,99995.60
2023-01-31T14:17:12.279Z,99988.09
2023-01-31T14:19:54.794Z,99987.20
2023-01-31T14:22:26.132Z,99980.56
2023-01-31T14:25:00.216Z,99974.82
2023-01-31T14:27:44.759Z,99976.79
2023-01-31T14:30:38.709Z,99979.27
2023-01-31T14:33:19.313Z,99965.68
2023-01-31T14:36:15.553Z,99966.71
2023-01-31T14:39:16.109Z,99961.54
2023-01-31T14:42:05.381Z,99966.52
2023-01-31T14:44:47.253Z,99967.23
2023-01-31T14:47:29.704Z,99963.97
2023-01-31T14:50:35.437Z,99959.15
2023-01-31T14:53:32.166Z,99955.60
2023-01-31T14:56:15.921Z,99943.13
2023-01-31T14:58:46.891Z,99947.75
2023-01-31T15:01:20.141Z,99941.52
2023-01-31T15:03:54.848Z,99940.80
2023-01-31T15:06:26.760Z,99933.69
2023-01-31T15:09:27.153Z,99934.75
2023-01-31T15:11:57.526Z,99935.44
2023-01-31T15:14:36.248Z,99932.02
2023-01-31T15:17:23.676Z,99936.31
2023-01-31T15:20:13.793Z,99925.74
2023-01-31T15:22:44.014Z,99922.67
2023-01-31T15:25:26.320Z,99923.39
2023-01-31T15:27:56.964Z,99921.31
2023-01-31T15:30:26.971Z,99918.72
2023-01-31T15:33:01.178Z,99917.09
2023-01-31T15:35:34.602Z,99908.19
2023-01-31T15:38:16.357Z,99905.54
2023-01-31T15:40:44.763Z,99904.14
2023-01-31T15:43:22.783Z,99906.08
2023-01-31T15:45:51.866Z,99896.40
2023-01-31T15:48:22.252Z,99886.48
2023-01-31T15:50:52.486Z,99886.85
2023-01-31T15:53:23.717Z,99883.64
2023-01-31T15:55:55.380Z,99881.83
2023-01-31T15:58:26.983Z,99878.05
2023-01-31T16:01:00.452Z,99868.00
2023-01-31T16:03:32.880Z,99869.08
2023-01-31T16:06:00.943Z,99860.14
2023-01-31T16:08:33.155Z,99860.38
2023-01-31T16:11:04.480Z,99855.00
2023-01-31T16:13:35.022Z,99851.21
2023-01-31T16:16:05.382Z,99845.45
2023-01-31T16:18:35.694Z,99840.27
2023-01-31T16:21:15.184Z,99839.01
2023-01-31T16:23:43.808Z,99831.84
2023-01-31T16:26:15.549Z,99828.62
2023-01-31T16:28:46.199Z,99826.96
2023-01-31T16:31:17.423Z,99824.44
2023-01-31T16:33:49.926Z,99820.33
2023-01-31T16:36:23.242Z,99819.95
2023-01-31T16:38:58.558Z,99816.20
2023-01-31T16:41:44.192Z,99819.98
2023-01-31T16:44:17.655Z,99813.36
2023-01-31T16:46:48.115Z,99811.58
2023-01-31T16:49:22.308Z,99807.48
2023-01-31T16:51:54.045Z,99799.27
2023-01-31T16:54:24.873Z,99800.77
2023-01-31T16:57:20.762Z,99799.33
2023-01-31T16:59:50.249Z,99793.27
2023-01-31T17:02:25.643Z,99789.70
2023-01-31T17:04:56.461Z,99784.52
2023-01-31T17:07:27.427Z,99776.89
2023-01-31T17:09:59.331Z,99773.13
2023-01-31T17:12:29.497Z,99767.73
2023-01-31T17:15:01.551Z,99761.52
2023-01-31T17:17:33.283Z,99758.88
2023-01-31T17:20:02.153Z,99754.59
2023-01-31T17:22:30.660Z,99744.18
2023-01-31T17:24:59.231Z,99732.59
2023-01-31T17:27:27.889Z,99739.52
2023-01-31T17:29:56.631Z,99734.55
2023-01-31T17:32:25.772Z,99728.07
2023-01-31T17:34:54.459Z,99727.91
2023-01-31T17:37:30.341Z,99721.27
2023-01-31T17:40:00.659Z,99724.21
2023-01-31T17:42:29.621Z,99725.13
2023-01-31T17:44:58.132Z,99729.23
2023-01-31T17:47:26.891Z,99722.33
2023-01-31T17:49:56.569Z,99717.98
2023-01-31T17:52:25.074Z,99715.14
2023-01-31T17:54:53.770Z,99711.20
2023-01-31T17:57:22.991Z,99703.84
2023-01-31T17:59:52.268Z,99702.92
2023-01-31T18:02:21.236Z,99695.45
2023-01-31T18:04:50.483Z,99694.38
2023-01-31T18:07:19.445Z,99688.98
2023-01-31T18:09:48.005Z,99683.81
2023-01-31T18:12:16.535Z,99677.19
2023-01-31T18:14:45.051Z,99671.25
2023-01-31T18:17:14.211Z,99672.64
2023-01-31T18:19:42.571Z,99663.63
2023-01-31T18:22:10.942Z,99659.98
2023-01-31T18:24:40.026Z,99661.73
2023-01-31T18:27:08.551Z,99660.82
2023-01-31T18:29:37.226Z,99652.05
2023-01-31T18:32:07.161Z,99638.03
2023-01-31T18:34:37.318Z,99637.46
2023-01-31T18:37:12.253Z,99633.52
2023-01-31T18:39:41.059Z,99628.30
2023-01-31T18:42:09.697Z,99626.91
2023-01-31T18:44:38.119Z,99627.45
2023-01-31T18:47:06.576Z,99621.84
2023-01-31T18:49:35.133Z,99621.52
2023-01-31T18:52:05.523Z,99618.95
2023-01-31T18:54:36.644Z,99610.31
2023-01-31T18:57:05.690Z,99602.05
2023-01-31T18:59:34.644Z,99584.66
2023-01-31T19:02:03.629Z,99591.05
2023-01-31T19:04:32.541Z,99597.14
2023-01-31T19:07:01.584Z,99608.94
2023-01-31T19:09:30.395Z,99611.81
2023-01-31T19:11:58.959Z,99620.19
2023-01-31T19:14:27.548Z,99622.23
2023-01-31T19:16:57.111Z,99622.40
2023-01-31T19:19:26.053Z,99607.05
2023-01-31T19:21:55.432Z,99593.41
2023-01-31T19:24:24.448Z,99602.01
2023-01-31T19:26:52.803Z,99596.81
2023-01-31T19:29:21.624Z,99593.04
2023-01-31T19:31:50.040Z,99587.25
2023-01-31T19:34:18.502Z,99586.48
2023-01-31T19:36:48.220Z,99583.23
2023-01-31T19:39:16.707Z,99575.79
2023-01-31T19:41:45.023Z,99571.30
2023-01-31T19:44:13.424Z,99564.65
2023-01-31T19:46:43.254Z,99567.19
2023-01-31T19:49:12.131Z,99560.91
2023-01-31T19:51:41.098Z,99560.64
2023-01-31T19:54:14.096Z,99555.75
2023-01-31T19:56:41.620Z,99560.76
2023-01-31T19:59:11.199Z,99556.49
2023-01-31T20:01:39.886Z,99555.30
2023-01-31T20:04:08.190Z,99546.02
2023-01-31T20:06:36.445Z,99537.92
2023-01-31T20:09:06.626Z,99527.73
2023-01-31T20:11:36.012Z,99521.09
2023-01-31T20:14:07.400Z,99511.35
2023-01-31T20:16:36.493Z,99509.21
2023-01-31T20:19:06.379Z,99513.26
2023-01-31T20:21:35.002Z,99502.77
2023-01-31T20:24:03.783Z,99496.39
2023-01-31T20:26:32.483Z,99485.95
2023-01-31T20:29:01.033Z,99486.09
2023-01-31T20:31:29.812Z,99484.71
2023-01-31T20:33:58.201Z,99489.54
2023-01-31T20:36:26.606Z,99487.04
2023-01-31T20:38:55.352Z,99488.48
2023-01-31T20:41:24.111Z,99487.08
2023-01-31T20:43:53.345Z,99482.23
2023-01-31T20:46:21.705Z,99486.71
2023-01-31T20:48:50.070Z,99509.21
2023-01-31T20:51:18.637Z,99513.11
2023-01-31T20:53:46.900Z,99509.70
2023-01-31T20:56:15.257Z,99509.16
2023-01-31T20:58:43.981Z,99493.92
2023-01-31T21:01:12.676Z,99498.79
2023-01-31T21:03:41.401Z,99504.89
2023-01-31T21:06:10.109Z,99505.42
2023-01-31T21:08:39.978Z,99489.23
2023-01-31T21:11:10.039Z,99498.28
2023-01-31T21:13:39.145Z,99490.39
2023-01-31T21:16:10.290Z,99503.09
2023-01-31T21:18:42.083Z,99525.75
2023-01-31T21:21:13.799Z,99546.58
2023-01-31T21:23:42.604Z,99602.30
2023-01-31T21:26:11.858Z,99613.34
2023-01-31T21:28:40.263Z,99609.38
2023-01-31T21:31:11.737Z,99599.80
2023-01-31T21:33:40.721Z,99573.23
2023-01-31T21:36:11.115Z,99569.80
2023-01-31T21:38:39.903Z,99563.04
2023-01-31T21:41:28.134Z,99562.55
2023-01-31T21:43:56.718Z,99563.32
2023-01-31T21:46:26.066Z,99552.33
2023-01-31T21:48:55.110Z,99562.81
2023-01-31T21:51:25.470Z,99572.51
2023-01-31T21:53:54.507Z,99580.23
2023-01-31T21:56:25.166Z,99574.77
2023-01-31T21:58:55.030Z,99572.46
2023-01-31T22:01:25.406Z,99573.70
2023-01-31T22:03:54.748Z,99572.62
2023-01-31T22:06:25.262Z,99582.24
2023-01-31T22:08:55.804Z,99591.21
2023-01-31T22:11:25.769Z,99586.05
2023-01-31T22:13:56.041Z,99582.59
2023-01-31T22:16:25.144Z,99579.80
2023-01-31T22:18:53.641Z,99584.36
2023-01-31T22:21:24.510Z,99591.06
2023-01-31T22:23:55.139Z,99588.77
2023-01-31T22:26:26.330Z,99599.31
2023-01-31T22:28:57.605Z,99594.33
2023-01-31T22:31:26.422Z,99594.11
2023-01-31T22:33:55.715Z,99593.24
2023-01-31T22:36:24.152Z,99591.46
2023-01-31T22:38:53.947Z,99589.16
2023-01-31T22:41:23.317Z,99589.33
2023-01-31T22:43:53.228Z,99590.55
2023-01-31T22:46:23.834Z,99592.52
2023-01-31T22:48:53.423Z,99588.98
2023-01-31T22:51:25.254Z,99585.94
2023-01-31T22:53:53.792Z,99583.64
2023-01-31T22:56:24.402Z,99577.41
2023-01-31T22:58:56.715Z,99583.11
2023-01-31T23:01:27.986Z,99582.55
2023-01-31T23:03:58.714Z,99583.07
2023-01-31T23:06:28.249Z,99579.15
2023-01-31T23:08:57.396Z,99573.23
2023-01-31T23:11:26.652Z,99571.88
2023-01-31T23:13:56.632Z,99568.66
2023-01-31T23:16:41.339Z,99568.83
2023-01-31T23:19:10.032Z,99568.10
2023-01-31T23:21:41.869Z,99569.42
2023-01-31T23:24:10.763Z,99569.77
2023-01-31T23:26:39.207Z,99577.80
2023-01-31T23:29:07.637Z,99582.08
2023-01-31T23:31:36.711Z,99581.56
2023-01-31T23:34:06.544Z,99582.08
2023-01-31T23:36:34.994Z,99587.98
2023-01-31T23:39:04.076Z,99584.92
2023-01-31T23:41:32.670Z,99584.36
2023-01-31T23:44:01.043Z,99586.71
2023-01-31T23:46:29.552Z,99589.19
2023-01-31T23:48:58.124Z,99588.32
2023-01-31T23:51:27.931Z,99591.17
2023-01-31T23:53:56.378Z,99585.79
2023-01-31T23:56:25.711Z,99581.13
2023-01-31T23:58:54.434Z,99571.27
